Time;durP1;ratioP1;P1;durP2;ratioP2;P2;SDS_P1;SDS_P2;PMS_P1;PMS_P2;Temp;Humidity;BMP_temperature;BMP_pressure;BME280_temperature;BME280_humidity;BME280_pressure;Samples;Min_cycle;Max_cycle;Signal;HPM_P1;HPM_P2
2021/06/18 00:00:21;;;;;;;4.45;2.85;;;;;;;18.50;100.00;100644.28;1665133;83;32420;-56
2021/06/18 00:02:49;;;;;;;8.50;2.92;;;;;;;18.45;100.00;100654.56;1654508;84;20955;-56
2021/06/18 00:05:16;;;;;;;7.05;3.58;;;;;;;18.39;100.00;100655.00;1661512;84;21024;-56
2021/06/18 00:07:44;;;;;;;11.63;3.92;;;;;;;18.37;100.00;100634.77;1648618;84;21122;-56
2021/06/18 00:10:13;;;;;;;9.70;3.45;;;;;;;18.35;100.00;100660.27;1672335;83;21013;-56
2021/06/18 00:12:39;;;;;;;7.20;3.20;;;;;;;18.38;100.00;100628.84;1670891;83;21502;-56
2021/06/18 00:15:07;;;;;;;7.85;3.37;;;;;;;18.43;100.00;100632.09;1669775;84;21545;-56
2021/06/18 00:17:33;;;;;;;6.62;3.22;;;;;;;18.48;100.00;100632.66;1653554;84;20987;-56
2021/06/18 00:19:59;;;;;;;5.20;3.00;;;;;;;18.46;100.00;100626.48;1670404;84;21466;-56
2021/06/18 00:22:26;;;;;;;9.93;3.15;;;;;;;18.42;100.00;100625.81;1638896;85;20949;-57
2021/06/18 00:24:53;;;;;;;9.50;3.15;;;;;;;18.45;100.00;100626.06;1671168;83;21113;-57
2021/06/18 00:27:19;;;;;;;8.45;2.98;;;;;;;18.49;100.00;100634.41;1643514;85;20982;-56
2021/06/18 00:29:49;;;;;;;7.80;3.65;;;;;;;18.49;100.00;100601.83;1638058;85;21054;-57
2021/06/18 00:32:15;;;;;;;6.12;3.10;;;;;;;18.47;100.00;100630.92;1669877;84;21457;-57
2021/06/18 00:34:41;;;;;;;10.50;3.67;;;;;;;18.45;100.00;100617.92;1675366;83;21435;-56
2021/06/18 00:37:07;;;;;;;4.20;3.27;;;;;;;18.39;100.00;100608.39;1628857;85;21482;-56
2021/06/18 00:39:34;;;;;;;7.35;3.30;;;;;;;18.36;100.00;100598.23;1616004;86;21936;-56
2021/06/18 00:42:04;;;;;;;8.13;3.72;;;;;;;18.35;100.00;100600.56;1639758;85;20982;-56
2021/06/18 00:44:30;;;;;;;11.78;4.17;;;;;;;18.34;100.00;100630.89;1604503;87;21163;-57
2021/06/18 00:46:57;;;;;;;5.05;3.00;;;;;;;18.33;100.00;100596.59;1624142;86;21070;-56
2021/06/18 00:49:24;;;;;;;10.48;3.77;;;;;;;18.30;100.00;100605.84;1635560;85;20978;-56
2021/06/18 00:51:51;;;;;;;9.33;3.47;;;;;;;18.26;100.00;100585.32;1645699;84;21034;-56
2021/06/18 00:54:28;;;;;;;8.33;3.30;;;;;;;18.26;100.00;100584.44;1669591;84;21038;-56
2021/06/18 00:56:46;;;;;;;5.00;3.00;;;;;;;18.26;100.00;100594.82;1665063;84;21453;-57
2021/06/18 00:59:12;;;;;;;4.72;3.15;;;;;;;18.27;100.00;100573.48;1654568;84;22154;-57
2021/06/18 01:01:40;;;;;;;6.25;3.67;;;;;;;18.24;100.00;100575.06;1668196;84;35325;-56
2021/06/18 01:04:07;;;;;;;4.22;3.27;;;;;;;18.22;100.00;100567.49;1663847;84;21006;-56
2021/06/18 01:06:36;;;;;;;7.20;3.58;;;;;;;18.20;100.00;100558.59;1659407;84;20914;-56
2021/06/18 01:09:09;;;;;;;4.87;3.22;;;;;;;18.21;100.00;100556.77;1639278;85;21095;-57
2021/06/18 01:11:46;;;;;;;6.78;3.67;;;;;;;18.18;100.00;100553.77;1670506;83;21025;-57
2021/06/18 01:14:20;;;;;;;8.95;3.70;;;;;;;18.15;100.00;100553.98;1675545;84;21166;-56
2021/06/18 01:16:56;;;;;;;6.95;3.42;;;;;;;18.14;100.00;100552.25;1679428;83;21057;-56
2021/06/18 01:19:34;;;;;;;4.97;3.23;;;;;;;18.13;100.00;100563.61;1637427;85;20934;-57
2021/06/18 01:22:05;;;;;;;9.70;3.90;;;;;;;18.14;100.00;100563.11;1581885;86;21149;-57
2021/06/18 01:24:46;;;;;;;7.83;3.33;;;;;;;18.10;100.00;100554.81;1629203;86;21049;-56
2021/06/18 01:27:36;;;;;;;4.62;3.12;;;;;;;18.10;100.00;100546.67;1617841;87;21053;-56
2021/06/18 01:30:16;;;;;;;4.17;3.58;;;;;;;18.06;100.00;100555.50;1624254;85;21578;-56
2021/06/18 01:33:06;;;;;;;4.42;3.42;;;;;;;18.07;100.00;100557.73;1671300;84;21058;-57
2021/06/18 01:35:38;;;;;;;6.85;4.05;;;;;;;18.08;100.00;100549.48;1620622;86;21147;-56
2021/06/18 01:38:07;;;;;;;5.42;3.33;;;;;;;18.07;100.00;100568.59;1596353;87;21045;-56
2021/06/18 01:40:36;;;;;;;3.80;3.25;;;;;;;18.07;100.00;100576.73;1637647;85;20942;-56
2021/06/18 01:43:05;;;;;;;7.25;3.72;;;;;;;18.08;100.00;100581.17;1667512;83;21767;-56
2021/06/18 01:45:32;;;;;;;8.70;3.72;;;;;;;18.10;100.00;100567.02;1675473;83;21044;-56
2021/06/18 01:47:59;;;;;;;6.40;3.70;;;;;;;18.06;100.00;100561.43;1668749;84;21578;-56
2021/06/18 01:50:26;;;;;;;9.60;3.80;;;;;;;18.01;100.00;100563.95;1673807;84;21594;-55
2021/06/18 01:53:01;;;;;;;5.97;3.42;;;;;;;18.00;100.00;100559.97;1672525;84;20925;-57
2021/06/18 01:55:27;;;;;;;5.97;3.90;;;;;;;17.98;100.00;100566.84;1673051;84;21006;-57
2021/06/18 01:57:56;;;;;;;11.05;4.30;;;;;;;17.98;100.00;100565.48;1632861;84;21993;-55
2021/06/18 02:00:23;;;;;;;7.83;5.00;;;;;;;17.96;100.00;100570.16;1653150;85;21070;-55
2021/06/18 02:02:50;;;;;;;5.78;4.70;;;;;;;17.95;100.00;100568.42;1663959;83;33668;-56
2021/06/18 02:05:17;;;;;;;9.78;5.15;;;;;;;17.94;100.00;100578.88;1690353;83;21643;-57
2021/06/18 02:07:43;;;;;;;8.95;5.42;;;;;;;17.92;100.00;100582.20;1669886;82;21534;-57
2021/06/18 02:10:11;;;;;;;8.70;6.17;;;;;;;17.88;100.00;100563.90;1645750;84;21010;-56
2021/06/18 02:12:40;;;;;;;11.68;6.03;;;;;;;17.84;100.00;100570.52;1687432;83;21391;-56
2021/06/18 02:15:08;;;;;;;11.08;5.65;;;;;;;17.83;100.00;100577.42;1652359;83;21027;-57
2021/06/18 02:17:35;;;;;;;6.28;5.53;;;;;;;17.82;100.00;100585.17;1666466;83;21167;-56
2021/06/18 02:20:05;;;;;;;7.70;5.03;;;;;;;17.80;100.00;100593.91;1685152;83;21109;-56
2021/06/18 02:22:31;;;;;;;7.12;5.17;;;;;;;17.78;100.00;100598.53;1689744;83;22031;-56
2021/06/18 02:24:58;;;;;;;6.95;4.75;;;;;;;17.79;100.00;100594.84;1694703;82;21749;-57
2021/06/18 02:27:25;;;;;;;5.67;4.42;;;;;;;17.79;100.00;100596.20;1693607;82;21119;-57
2021/06/18 02:29:51;;;;;;;5.33;4.33;;;;;;;17.80;100.00;100593.91;1663333;84;20948;-56
2021/06/18 02:32:18;;;;;;;8.95;4.80;;;;;;;17.81;100.00;100603.77;1661367;84;21452;-56
2021/06/18 02:34:44;;;;;;;8.73;4.70;;;;;;;17.83;100.00;100605.89;1686252;82;21432;-56
2021/06/18 02:37:11;;;;;;;5.10;3.80;;;;;;;17.91;100.00;100614.36;1686008;83;22202;-56
2021/06/18 02:39:42;;;;;;;7.47;4.35;;;;;;;17.99;100.00;100617.41;1685827;82;21589;-56
2021/06/18 02:42:11;;;;;;;7.15;4.17;;;;;;;18.08;100.00;100613.73;1698340;82;20985;-55
2021/06/18 02:44:39;;;;;;;6.15;3.65;;;;;;;18.18;100.00;100625.67;1695157;82;21005;-56
2021/06/18 02:47:22;;;;;;;6.80;3.52;;;;;;;18.24;100.00;100623.91;1697288;82;20904;-56
2021/06/18 02:49:57;;;;;;;6.25;3.33;;;;;;;18.30;100.00;100634.80;1695585;82;21427;-56
2021/06/18 02:52:57;;;;;;;5.37;4.20;;;;;;;18.36;100.00;100615.87;1695168;82;21606;-56
2021/06/18 02:55:29;;;;;;;8.25;3.55;;;;;;;18.37;100.00;100627.11;1686988;82;21028;-56
2021/06/18 02:58:00;;;;;;;10.63;3.52;;;;;;;18.40;100.00;100610.59;1687394;82;21042;-56
2021/06/18 03:00:29;;;;;;;4.50;3.75;;;;;;;18.40;100.00;100609.25;1689808;82;21068;-57
2021/06/18 03:02:57;;;;;;;3.83;3.33;;;;;;;18.44;100.00;100624.33;1690336;82;21436;-56
2021/06/18 03:05:25;;;;;;;7.67;3.77;;;;;;;18.44;100.00;100628.41;1689135;83;21020;-57
2021/06/18 03:07:58;;;;;;;5.03;3.62;;;;;;;18.46;100.00;100652.27;1689927;82;20966;-59
2021/06/18 03:10:26;;;;;;;4.30;3.15;;;;;;;18.51;100.00;100631.09;1675269;82;21518;-57
2021/06/18 03:13:03;;;;;;;6.87;3.60;;;;;;;18.56;100.00;100625.30;1699799;82;20965;-58
2021/06/18 03:15:33;;;;;;;6.55;3.25;;;;;;;18.59;100.00;100629.19;1698732;82;21008;-57
2021/06/18 03:18:00;;;;;;;5.80;3.08;;;;;;;18.59;100.00;100642.26;1698675;82;20993;-57
2021/06/18 03:20:26;;;;;;;6.53;3.47;;;;;;;18.60;100.00;100636.36;1685994;82;21570;-58
2021/06/18 03:22:59;;;;;;;7.03;3.25;;;;;;;18.60;100.00;100631.78;1690688;82;21010;-57
2021/06/18 03:25:25;;;;;;;7.20;3.62;;;;;;;18.63;100.00;100632.53;1672116;84;21076;-57
2021/06/18 03:27:53;;;;;;;4.35;3.27;;;;;;;18.61;100.00;100632.66;1664792;82;21112;-57
2021/06/18 03:30:21;;;;;;;5.10;3.90;;;;;;;18.58;100.00;100646.45;1686295;83;21934;-56
2021/06/18 03:32:50;;;;;;;9.13;4.15;;;;;;;18.57;100.00;100629.28;1689460;82;21353;-56
2021/06/18 03:35:19;;;;;;;6.85;3.67;;;;;;;18.59;100.00;100634.11;1647665;83;20981;-57
2021/06/18 03:37:46;;;;;;;4.72;3.80;;;;;;;18.56;100.00;100632.98;1681132;82;21474;-55
2021/06/18 03:40:13;;;;;;;6.67;4.55;;;;;;;18.56;100.00;100622.12;1681511;82;21179;-56
2021/06/18 03:42:40;;;;;;;5.03;3.65;;;;;;;18.55;100.00;100624.92;1649069;84;21131;-57
2021/06/18 03:45:07;;;;;;;5.87;3.87;;;;;;;18.53;100.00;100620.10;1671419;83;21032;-56
2021/06/18 03:47:34;;;;;;;7.25;3.45;;;;;;;18.56;100.00;100616.69;1691060;82;21088;-56
2021/06/18 03:50:01;;;;;;;4.65;3.50;;;;;;;18.63;100.00;100609.45;1669916;83;21147;-56
2021/06/18 03:52:27;;;;;;;5.97;3.60;;;;;;;18.75;100.00;100608.59;1701656;83;21118;-55
2021/06/18 03:54:56;;;;;;;6.00;3.42;;;;;;;18.83;100.00;100608.89;1696176;82;20928;-55
2021/06/18 03:57:23;;;;;;;8.20;3.72;;;;;;;18.89;100.00;100628.81;1699173;83;21537;-56
2021/06/18 03:59:52;;;;;;;6.50;3.40;;;;;;;18.98;100.00;100612.84;1692990;82;21415;-56
2021/06/18 04:02:20;;;;;;;6.22;3.27;;;;;;;19.05;100.00;100611.44;1694373;81;32824;-55
2021/06/18 04:04:46;;;;;;;7.55;3.30;;;;;;;19.14;100.00;100601.75;1697980;82;21771;-57
2021/06/18 04:07:15;;;;;;;7.50;3.10;;;;;;;19.19;100.00;100613.14;1690589;82;20902;-57
2021/06/18 04:09:42;;;;;;;11.10;3.45;;;;;;;19.21;100.00;100617.11;1669646;83;21130;-56
2021/06/18 04:12:09;;;;;;;12.80;3.35;;;;;;;19.27;100.00;100615.30;1699348;82;21593;-57
2021/06/18 04:14:36;;;;;;;6.30;3.33;;;;;;;19.33;100.00;100603.95;1702937;82;21159;-55
2021/06/18 04:17:06;;;;;;;7.28;2.77;;;;;;;19.41;100.00;100626.02;1696641;82;21105;-56
2021/06/18 04:19:36;;;;;;;6.28;3.02;;;;;;;19.46;100.00;100618.38;1693861;82;21033;-56
2021/06/18 04:22:02;;;;;;;4.30;2.92;;;;;;;19.52;100.00;100617.54;1698645;82;20930;-55
2021/06/18 04:24:29;;;;;;;9.48;2.90;;;;;;;19.57;99.86;100624.88;1702278;82;21062;-56
2021/06/18 04:26:55;;;;;;;5.67;2.62;;;;;;;19.56;100.00;100619.04;1693565;82;21002;-55
2021/06/18 04:29:23;;;;;;;8.25;3.10;;;;;;;19.56;100.00;100642.15;1699383;82;21169;-56
2021/06/18 04:31:51;;;;;;;7.37;3.12;;;;;;;19.59;100.00;100648.75;1702901;82;21068;-55
2021/06/18 04:34:19;;;;;;;4.03;2.75;;;;;;;19.62;100.00;100641.71;1681516;82;20989;-57
2021/06/18 04:36:45;;;;;;;2.83;2.35;;;;;;;19.71;100.00;100640.16;1679454;83;21049;-55
2021/06/18 04:39:12;;;;;;;4.28;2.80;;;;;;;19.78;99.16;100644.61;1674744;83;21149;-57
2021/06/18 04:41:38;;;;;;;5.17;2.92;;;;;;;19.86;99.17;100636.25;1682321;83;21894;-57
2021/06/18 04:44:06;;;;;;;4.83;2.80;;;;;;;19.97;99.94;100672.70;1666958;83;20945;-56
2021/06/18 04:46:33;;;;;;;3.95;2.60;;;;;;;20.04;97.84;100650.34;1664166;84;21092;-56
2021/06/18 04:48:59;;;;;;;5.72;2.72;;;;;;;20.11;97.50;100645.78;1656853;84;21125;-56
2021/06/18 04:51:27;;;;;;;5.30;2.95;;;;;;;20.14;96.10;100665.95;1662017;84;21942;-56
2021/06/18 04:53:54;;;;;;;4.05;2.45;;;;;;;20.17;96.60;100644.82;1683418;83;21778;-56
2021/06/18 04:56:20;;;;;;;3.58;2.30;;;;;;;20.22;93.80;100659.92;1683981;83;21487;-55
2021/06/18 04:58:47;;;;;;;6.53;2.90;;;;;;;20.26;92.71;100669.58;1655303;84;21444;-55
2021/06/18 05:01:14;;;;;;;4.75;2.70;;;;;;;20.29;95.20;100655.73;1656578;84;21051;-55
2021/06/18 05:03:40;;;;;;;6.40;2.50;;;;;;;20.35;94.57;100671.61;1656168;84;21006;-56
2021/06/18 05:06:09;;;;;;;4.50;2.60;;;;;;;20.43;92.88;100681.39;1658789;84;21192;-56
2021/06/18 05:08:35;;;;;;;6.85;3.00;;;;;;;20.47;93.19;100659.73;1671834;83;21024;-57
2021/06/18 05:11:02;;;;;;;4.00;2.70;;;;;;;20.48;93.61;100661.98;1680345;83;20997;-56
2021/06/18 05:13:29;;;;;;;5.35;2.70;;;;;;;20.48;93.60;100666.06;1683374;83;21573;-56
2021/06/18 05:15:59;;;;;;;3.60;2.67;;;;;;;20.46;94.61;100671.62;1681387;83;21004;-56
2021/06/18 05:18:23;;;;;;;5.00;2.65;;;;;;;20.51;92.65;100669.91;1686891;83;21152;-56
2021/06/18 05:20:50;;;;;;;5.17;2.60;;;;;;;20.51;92.58;100662.22;1680298;83;20944;-57
2021/06/18 05:23:16;;;;;;;7.65;3.25;;;;;;;20.52;92.90;100667.55;1677598;83;21048;-56
2021/06/18 05:25:42;;;;;;;9.00;2.67;;;;;;;20.54;92.85;100648.36;1682186;83;21129;-56
2021/06/18 05:28:09;;;;;;;5.62;3.25;;;;;;;20.56;92.30;100662.75;1681817;83;21044;-56
2021/06/18 05:30:35;;;;;;;6.30;2.95;;;;;;;20.54;91.90;100672.39;1679730;83;21533;-56
2021/06/18 05:33:02;;;;;;;6.17;2.50;;;;;;;20.55;92.13;100670.03;1679358;83;20922;-56
2021/06/18 05:35:28;;;;;;;4.12;2.60;;;;;;;20.56;92.76;100654.58;1693982;83;20982;-56
2021/06/18 05:37:55;;;;;;;4.92;2.65;;;;;;;20.54;91.19;100681.91;1671583;83;21035;-56
2021/06/18 05:40:22;;;;;;;5.08;2.40;;;;;;;20.53;91.31;100663.84;1640670;84;21018;-55
2021/06/18 05:42:49;;;;;;;8.45;2.85;;;;;;;20.56;90.84;100690.83;1669577;83;21018;-55
2021/06/18 05:45:15;;;;;;;6.42;2.75;;;;;;;20.56;92.10;100689.98;1653411;84;20966;-57
2021/06/18 05:47:42;;;;;;;10.23;2.90;;;;;;;20.53;91.71;100684.27;1667550;84;20949;-57
2021/06/18 05:50:10;;;;;;;9.20;2.90;;;;;;;20.53;91.67;100680.66;1667210;84;21159;-55
2021/06/18 05:52:36;;;;;;;6.45;2.75;;;;;;;20.50;90.30;100679.55;1668236;84;21012;-57
2021/06/18 05:55:03;;;;;;;6.20;3.10;;;;;;;20.47;90.17;100708.75;1669914;83;21790;-57
2021/06/18 05:57:31;;;;;;;5.42;2.67;;;;;;;20.47;90.59;100697.86;1682661;83;20998;-56
2021/06/18 05:59:57;;;;;;;6.15;2.95;;;;;;;20.50;89.83;100674.98;1688801;83;21008;-56
2021/06/18 06:02:25;;;;;;;4.30;2.55;;;;;;;20.55;89.53;100712.24;1669378;83;30381;-56
2021/06/18 06:04:52;;;;;;;4.05;2.95;;;;;;;20.63;88.97;100727.11;1621653;86;20946;-56
2021/06/18 06:07:21;;;;;;;4.72;2.52;;;;;;;20.66;88.54;100706.44;1660939;84;21096;-56
2021/06/18 06:09:48;;;;;;;11.12;2.65;;;;;;;20.71;88.18;100687.90;1654530;84;21658;-56
2021/06/18 06:12:14;;;;;;;6.72;2.50;;;;;;;20.73;88.49;100713.16;1656381;84;21166;-56
2021/06/18 06:14:41;;;;;;;5.00;2.72;;;;;;;20.78;89.07;100680.08;1655835;84;21045;-56
2021/06/18 06:17:10;;;;;;;8.65;2.80;;;;;;;20.83;85.79;100708.73;1660827;84;20969;-57
2021/06/18 06:19:36;;;;;;;3.62;2.40;;;;;;;20.89;87.33;100686.47;1634618;85;21569;-57
2021/06/18 06:22:03;;;;;;;4.67;2.80;;;;;;;20.91;84.71;100671.86;1621551;86;21435;-56
2021/06/18 06:24:30;;;;;;;6.03;2.72;;;;;;;20.95;86.29;100684.23;1621407;86;21883;-56
2021/06/18 06:26:57;;;;;;;6.08;2.70;;;;;;;21.06;84.57;100680.65;1662538;84;22909;-56
2021/06/18 06:29:23;;;;;;;9.13;3.22;;;;;;;21.14;85.02;100683.12;1663476;84;21120;-57
2021/06/18 06:31:51;;;;;;;9.55;2.33;;;;;;;21.20;82.32;100732.17;1662184;84;21152;-57
2021/06/18 06:34:18;;;;;;;7.45;2.75;;;;;;;21.30;81.29;100699.58;1655038;84;21064;-56
2021/06/18 06:36:45;;;;;;;4.40;2.60;;;;;;;21.36;80.15;100749.55;1659334;83;20989;-56
2021/06/18 06:39:11;;;;;;;4.08;2.47;;;;;;;21.40;80.86;100692.40;1672093;83;21546;-55
2021/06/18 06:41:39;;;;;;;4.33;2.40;;;;;;;21.44;79.34;100688.42;1675492;83;21074;-56
2021/06/18 06:44:06;;;;;;;6.70;2.37;;;;;;;21.45;79.01;100698.34;1675575;83;22089;-55
2021/06/18 06:46:33;;;;;;;4.40;2.40;;;;;;;21.50;79.74;100686.17;1642454;85;21599;-55
2021/06/18 06:49:01;;;;;;;3.65;2.40;;;;;;;21.58;80.96;100690.52;1681605;83;21367;-56
2021/06/18 06:51:28;;;;;;;7.20;2.50;;;;;;;21.67;80.46;100673.92;1673504;83;20983;-57
2021/06/18 06:53:54;;;;;;;3.15;2.30;;;;;;;21.73;80.10;100685.16;1672809;83;21078;-55
2021/06/18 06:56:21;;;;;;;6.35;2.47;;;;;;;21.74;80.19;100685.53;1678844;83;21758;-56
2021/06/18 06:58:49;;;;;;;6.05;2.58;;;;;;;21.79;80.06;100687.03;1677185;83;21962;-55
2021/06/18 07:01:16;;;;;;;4.75;2.50;;;;;;;21.89;78.98;100690.70;1673578;83;41942;-56
2021/06/18 07:03:44;;;;;;;7.00;2.40;;;;;;;21.93;77.96;100729.02;1670187;83;21444;-55
2021/06/18 07:06:13;;;;;;;3.95;2.40;;;;;;;21.96;78.32;100682.36;1674796;83;20949;-56
2021/06/18 07:08:42;;;;;;;5.80;2.50;;;;;;;22.00;78.44;100670.20;1676427;83;21517;-55
2021/06/18 07:11:12;;;;;;;5.55;2.55;;;;;;;22.06;77.88;100668.80;1676142;83;21658;-55
2021/06/18 07:13:39;;;;;;;8.85;2.67;;;;;;;22.09;77.84;100667.67;1671135;83;20989;-56
2021/06/18 07:16:07;;;;;;;6.55;2.60;;;;;;;22.10;77.70;100693.98;1676139;83;21288;-55
2021/06/18 07:18:36;;;;;;;6.53;2.12;;;;;;;22.11;76.77;100685.67;1677911;83;21073;-55
2021/06/18 07:21:03;;;;;;;5.22;2.10;;;;;;;22.14;77.03;100685.89;1672156;83;21794;-55
2021/06/18 07:23:30;;;;;;;6.35;2.20;;;;;;;22.21;77.05;100725.83;1671845;83;20936;-55
2021/06/18 07:25:58;;;;;;;5.67;2.17;;;;;;;22.19;76.19;100698.64;1677532;83;20918;-56
2021/06/18 07:28:25;;;;;;;5.97;2.40;;;;;;;22.17;76.87;100680.16;1673102;83;21669;-55
2021/06/18 07:30:52;;;;;;;3.67;2.17;;;;;;;22.18;75.77;100692.33;1674831;83;21534;-55
2021/06/18 07:33:19;;;;;;;3.05;2.22;;;;;;;22.22;76.34;100694.31;1671884;83;21131;-56
2021/06/18 07:35:45;;;;;;;5.42;2.12;;;;;;;22.29;75.96;100696.88;1674502;83;21015;-54
2021/06/18 07:38:13;;;;;;;8.93;2.40;;;;;;;22.30;74.72;100710.02;1675218;83;21080;-54
2021/06/18 07:40:40;;;;;;;6.37;2.40;;;;;;;22.27;75.62;100716.62;1675290;83;20988;-55
2021/06/18 07:43:07;;;;;;;4.17;2.17;;;;;;;22.22;75.39;100747.55;1669166;83;21070;-55
2021/06/18 07:45:34;;;;;;;5.55;2.50;;;;;;;22.14;76.24;100698.17;1659389;84;22460;-55
2021/06/18 07:48:02;;;;;;;4.60;2.70;;;;;;;22.10;77.16;100713.94;1666672;84;21028;-55
2021/06/18 07:50:29;;;;;;;7.55;2.80;;;;;;;22.12;78.03;100732.94;1667173;84;20960;-56
2021/06/18 07:52:56;;;;;;;10.08;2.45;;;;;;;22.13;79.02;100712.83;1670539;84;21085;-56
2021/06/18 07:55:24;;;;;;;5.03;2.75;;;;;;;22.17;79.37;100712.92;1667202;84;21084;-55
2021/06/18 07:57:51;;;;;;;7.97;2.20;;;;;;;22.23;79.76;100710.18;1678681;83;21712;-55
2021/06/18 08:00:22;;;;;;;6.28;2.55;;;;;;;22.27;78.27;100708.43;1658635;83;21087;-55
2021/06/18 08:02:48;;;;;;;11.95;2.42;;;;;;;22.23;78.23;100707.45;1676283;83;31143;-55
2021/06/18 08:05:16;;;;;;;7.45;2.33;;;;;;;22.22;79.07;100701.14;1681596;83;21502;-55
2021/06/18 08:07:46;;;;;;;7.45;2.17;;;;;;;22.26;79.08;100702.60;1678660;83;21023;-55
2021/06/18 08:10:14;;;;;;;5.75;2.27;;;;;;;22.27;79.60;100706.18;1679134;83;21319;-54
2021/06/18 08:12:45;;;;;;;9.60;2.50;;;;;;;22.25;79.99;100704.97;1677812;83;21066;-54
2021/06/18 08:15:12;;;;;;;8.15;2.30;;;;;;;22.31;81.51;100687.16;1678167;83;21530;-54
2021/06/18 08:17:39;;;;;;;6.00;2.20;;;;;;;22.42;79.59;100691.70;1677348;83;21591;-55
2021/06/18 08:20:07;;;;;;;5.75;2.33;;;;;;;22.46;78.29;100715.05;1678979;83;20904;-54
2021/06/18 08:22:33;;;;;;;7.03;2.40;;;;;;;22.48;77.70;100700.78;1679207;83;21665;-55
2021/06/18 08:25:02;;;;;;;7.55;2.47;;;;;;;22.52;78.60;100704.98;1673665;83;21033;-55
2021/06/18 08:27:32;;;;;;;8.28;2.60;;;;;;;22.58;78.60;100693.51;1679546;83;21142;-54
2021/06/18 08:29:58;;;;;;;4.58;2.20;;;;;;;22.59;78.50;100696.61;1674660;83;21507;-54
2021/06/18 08:32:24;;;;;;;7.03;2.70;;;;;;;22.61;78.48;100693.23;1673697;83;20994;-54
2021/06/18 08:34:51;;;;;;;7.35;2.70;;;;;;;22.59;77.74;100711.63;1676717;83;21952;-55
2021/06/18 08:37:17;;;;;;;3.10;2.15;;;;;;;22.53;77.63;100697.14;1672261;83;21043;-55
2021/06/18 08:39:44;;;;;;;5.22;2.10;;;;;;;22.52;77.91;100723.22;1672551;83;20978;-55
2021/06/18 08:42:12;;;;;;;5.37;2.65;;;;;;;22.50;78.13;100704.25;1671096;83;20954;-56
2021/06/18 08:44:39;;;;;;;8.33;2.70;;;;;;;22.46;77.60;100705.48;1678164;83;21071;-56
2021/06/18 08:47:06;;;;;;;3.67;2.10;;;;;;;22.44;79.50;100712.95;1675470;83;21104;-55
2021/06/18 08:49:35;;;;;;;9.30;2.50;;;;;;;22.43;79.27;100701.63;1671040;83;22250;-55
2021/06/18 08:52:02;;;;;;;6.17;2.87;;;;;;;22.41;80.08;100703.62;1672286;83;21490;-56
2021/06/18 08:54:44;;;;;;;7.53;2.45;;;;;;;22.40;79.19;100715.55;1671527;83;21684;-57
2021/06/18 08:57:16;;;;;;;19.05;3.60;;;;;;;22.35;79.44;100716.45;1678994;82;21795;-55
2021/06/18 08:59:43;;;;;;;5.75;2.20;;;;;;;22.29;79.90;100717.36;1668525;83;21163;-57
2021/06/18 09:02:10;;;;;;;5.33;2.15;;;;;;;22.24;78.84;100725.08;1659488;83;33282;-57
2021/06/18 09:05:08;;;;;;;4.87;2.45;;;;;;;22.15;79.10;100732.67;1649804;84;21564;-56
2021/06/18 09:08:03;;;;;;;9.28;2.70;;;;;;;22.07;79.05;100719.66;1639416;85;21002;-56
2021/06/18 09:10:37;;;;;;;5.83;2.12;;;;;;;22.00;79.09;100730.26;1645607;85;21516;-56
2021/06/18 09:13:31;;;;;;;8.58;2.10;;;;;;;21.97;79.03;100704.55;1653204;84;21763;-55
2021/06/18 09:15:56;;;;;;;6.47;1.85;;;;;;;21.99;79.71;100709.39;1649266;84;21556;-56
2021/06/18 09:18:35;;;;;;;5.42;2.17;;;;;;;22.01;79.05;100712.88;1649978;83;32486;-56
2021/06/18 09:21:13;;;;;;;8.95;2.05;;;;;;;22.08;79.82;100709.62;1652021;84;21043;-56
2021/06/18 09:23:45;;;;;;;7.20;2.17;;;;;;;22.16;79.52;100707.09;1648951;85;21418;-57
2021/06/18 09:26:38;;;;;;;5.75;2.33;;;;;;;22.23;79.43;100711.06;1650358;85;21203;-56
2021/06/18 09:29:18;;;;;;;7.05;2.00;;;;;;;22.26;78.72;100710.80;1645944;84;20972;-56
2021/06/18 09:31:59;;;;;;;6.17;2.00;;;;;;;22.28;78.82;100727.91;1648852;84;21411;-56
2021/06/18 09:34:55;;;;;;;9.35;2.12;;;;;;;22.24;78.20;100738.73;1647128;85;21499;-56
2021/06/18 09:37:35;;;;;;;10.90;3.50;;;;;;;22.14;78.17;100736.39;1613791;86;21032;-56
2021/06/18 09:40:17;;;;;;;6.28;2.40;;;;;;;22.09;79.04;100722.28;1631036;86;21897;-56
2021/06/18 09:42:59;;;;;;;8.05;2.25;;;;;;;22.12;79.24;100741.13;1635938;86;21006;-56
2021/06/18 09:45:32;;;;;;;3.30;2.08;;;;;;;22.17;78.28;100745.69;1632861;86;20987;-56
2021/06/18 09:48:17;;;;;;;7.70;2.42;;;;;;;22.26;77.58;100738.10;1633935;86;21051;-56
2021/06/18 09:50:47;;;;;;;7.08;2.20;;;;;;;22.25;76.93;100743.67;1633771;86;21982;-56
2021/06/18 09:53:22;;;;;;;2.85;2.00;;;;;;;22.20;76.81;100739.11;1629826;86;20968;-56
2021/06/18 09:56:06;;;;;;;4.95;1.90;;;;;;;22.20;77.38;100739.97;1632077;86;21070;-56
2021/06/18 09:58:39;;;;;;;4.42;2.60;;;;;;;22.23;77.19;100738.37;1632994;86;20982;-56
2021/06/18 10:01:28;;;;;;;5.55;2.00;;;;;;;22.27;76.87;100730.76;1599237;88;21049;-56
2021/06/18 10:04:11;;;;;;;3.55;2.10;;;;;;;22.27;76.14;100733.48;1632831;86;21105;-56
2021/06/18 10:06:36;;;;;;;6.42;2.00;;;;;;;22.26;76.88;100727.17;1627692;86;22438;-56
2021/06/18 10:09:06;;;;;;;7.00;2.25;;;;;;;22.29;76.92;100715.11;1600959;88;21094;-56
2021/06/18 10:11:34;;;;;;;6.45;1.92;;;;;;;22.33;76.57;100730.26;1630574;85;21576;-56
2021/06/18 10:14:01;;;;;;;7.50;2.40;;;;;;;22.40;76.14;100722.38;1630593;86;21175;-55
2021/06/18 10:16:28;;;;;;;8.35;2.27;;;;;;;22.45;75.88;100718.78;1596787;88;21551;-55
2021/06/18 10:18:58;;;;;;;5.53;2.33;;;;;;;22.44;75.14;100724.73;1626657;86;21025;-57
2021/06/18 10:21:29;;;;;;;7.97;2.20;;;;;;;22.43;75.13;100724.84;1597890;88;21110;-56
2021/06/18 10:24:02;;;;;;;10.53;2.50;;;;;;;22.42;74.72;100721.75;1628793;86;21123;-57
2021/06/18 10:26:29;;;;;;;5.97;2.33;;;;;;;22.40;75.32;100704.63;1630682;86;21019;-57
2021/06/18 10:29:00;;;;;;;5.30;2.15;;;;;;;22.38;75.53;100710.72;1628420;86;21388;-59
2021/06/18 10:31:32;;;;;;;6.60;2.30;;;;;;;22.35;75.82;100708.27;1630351;86;21938;-59
2021/06/18 10:34:09;;;;;;;4.87;2.02;;;;;;;22.39;76.16;100722.02;1632922;86;21020;-59
2021/06/18 10:36:37;;;;;;;7.90;2.30;;;;;;;22.41;75.35;100713.19;1627995;86;21071;-58
2021/06/18 10:39:14;;;;;;;4.80;2.33;;;;;;;22.40;75.81;100712.34;1628990;86;21044;-57
2021/06/18 10:41:52;;;;;;;3.87;2.30;;;;;;;22.44;75.88;100716.53;1631319;86;21032;-57
2021/06/18 10:44:41;;;;;;;5.67;2.05;;;;;;;22.45;75.02;100723.73;1633615;86;21826;-57
2021/06/18 10:47:30;;;;;;;7.05;2.52;;;;;;;22.50;75.55;100722.00;1629834;86;20956;-57
2021/06/18 10:49:54;;;;;;;8.65;2.05;;;;;;;22.56;75.44;100714.63;1626884;86;21088;-57
2021/06/18 10:52:23;;;;;;;10.60;2.58;;;;;;;22.61;74.92;100712.36;1629675;86;21097;-56
2021/06/18 10:54:58;;;;;;;6.55;2.30;;;;;;;22.64;74.94;100729.48;1628789;86;21350;-56
2021/06/18 10:57:27;;;;;;;2.42;1.90;;;;;;;22.61;74.42;100726.02;1627015;86;21587;-56
2021/06/18 11:00:01;;;;;;;6.90;2.22;;;;;;;22.60;74.14;100709.27;1633403;86;21350;-56
2021/06/18 11:02:31;;;;;;;4.45;2.10;;;;;;;22.60;74.61;100718.83;1606414;86;34657;-55
2021/06/18 11:05:07;;;;;;;7.78;2.40;;;;;;;22.55;74.83;100722.98;1589368;88;21617;-56
2021/06/18 11:07:38;;;;;;;6.28;2.80;;;;;;;22.48;75.19;100726.73;1590503;88;21002;-56
2021/06/18 11:10:19;;;;;;;8.08;2.12;;;;;;;22.45;75.97;100736.02;1587648;88;21142;-56
2021/06/18 11:12:46;;;;;;;4.67;2.10;;;;;;;22.44;76.32;100712.95;1588008;88;21058;-57
2021/06/18 11:15:24;;;;;;;5.75;2.37;;;;;;;22.47;75.97;100737.30;1584585;88;21099;-57
2021/06/18 11:18:02;;;;;;;4.90;2.47;;;;;;;22.48;75.92;100718.54;1590552;88;21057;-57
2021/06/18 11:20:46;;;;;;;6.70;4.05;;;;;;;22.52;74.75;100728.69;1593854;88;21087;-57
2021/06/18 11:23:20;;;;;;;8.90;5.03;;;;;;;22.51;74.35;100731.93;1585256;88;21157;-57
2021/06/18 11:26:05;;;;;;;12.47;3.60;;;;;;;22.55;75.27;100730.66;1587077;88;21076;-58
2021/06/18 11:28:37;;;;;;;11.22;3.05;;;;;;;22.58;75.16;100723.56;1584164;88;20990;-57
2021/06/18 11:31:22;;;;;;;9.40;3.45;;;;;;;22.60;74.67;100722.08;1587735;88;21106;-57
2021/06/18 11:33:52;;;;;;;6.75;2.87;;;;;;;22.59;75.45;100736.22;1587704;88;21037;-57